x

Buoy F01 - West Penobscot Bay (44033) Wave Buoy

9:04 - Mon 22nd Dec 2014 All times are EST. -5 hours from GMT.

  • Sig Wave height 2.0ft
  • Peak Period 6s
  • Wind
    9mph, 11mph gusts
  • Sea Temp 42°f
  • Luft Temp 40°f
  • Sea Pressure 1027.7mb
  • Buoy F01 - West Penobscot Bay
  • Buoy F01 - West Penobscot Bay

More Historic Weather Station data

Upgrade to MSW Pro to gain access to the past 30 days of data for over 8000 Wavebouys and Weather Stations around the globe.

Join Pro

Comparision Forecast

View Surf forecast
   
Mo 12/22 9:04 2ft 6s 9 11 mph 1027.7mb 42f 40f
8:04 2ft 3s 11
mph
1028.5mb 42f 39f
7:04 2.5ft 8s 11 13 mph 1028.6mb 42f 38f
6:04 2.5ft 8s 13 16 mph 1028.3mb 44f 38f
5:04 2ft 4s 13 16 mph 1028.1mb 44f 38f
4:04 2ft 5s 11 13 mph 1028.6mb 44f 38f
3:04 1.3ft 5s 11 13 mph 1028.5mb 45f 38f
2:04 1.3ft 6s 7 9 mph 1027.8mb 44f 37f
1:04 1.3ft 8s 11 13 mph 1027.7mb 44f 37f
12:04 1.3ft 8s 9 11 mph 1028.1mb 44f 37f
11:04 1.3ft 6s 9 11 mph 1028.8mb 42f 36f
10:04 1.6ft 6s 9 11 mph 1029.4mb 42f 35f
9:04 1.6ft 6s 7 9 mph 1029.5mb 42f 35f
8:04 1.3ft 6s 7 9 mph 1029.3mb 41f 35f
7:04 1.6ft 6s 9 11 mph 1029.1mb 41f 35f
6:04 1.6ft 6s 11 13 mph 1028.5mb 41f 35f
5:04 1.3ft 5s 11 13 mph 1028mb 41f 35f
4:04 1.6ft 5s 13 16 mph 1028.2mb 41f 34f
3:04 1ft 2s 13 16 mph 1028.3mb 43f 33f
2:04 1.6ft 2s 13 16 mph 1028.2mb 44f 34f
1:04 2ft 8s 13 16 mph 1027.8mb 44f 34f
12:04 1.3ft 2s 13 16 mph 1027.7mb 43f 34f
So 12/21 11:04 1ft 2s 13 16 mph 1027.5mb 43f 35f
10:04 1.3ft 6s 11
mph
1027.5mb 42f 35f
9:04 1.3ft 6s 11 13 mph 1027.1mb 42f 35f
8:04 1.3ft 6s 11 13 mph 1026.9mb 42f 35f
7:04 1ft 6s 11 13 mph 1027mb 41f 36f
6:04 1ft 8s 11 13 mph 1026.9mb 41f 36f
5:04 1ft 8s 9 11 mph 1026.8mb 41f 36f
4:04 1ft 5s 9 13 mph 1026.2mb 41f 36f
3:04 1ft 8s 9 11 mph 1026.1mb 44f 36f
2:04 1.3ft 11s 9 13 mph 1025.8mb 45f 35f
1:04 0.7ft  -  11 13 mph 1025.7mb 44f 34f
12:04 1ft 2s 9 13 mph 1025.7mb 44f 34f
11:04 1.3ft 2s 11
mph
1026.2mb 44f 33f
10:04 1.3ft 3s 13 16 mph 1026.3mb 43f 33f
9:04 1.3ft 2s 16 18 mph 1026.4mb 42f 33f
8:04 1.3ft 3s 16
mph
1026.2mb 42f 31f
7:04 1ft 3s 13 16 mph 1026.4mb 41f 31f
6:04 1ft 3s 16 18 mph 1026.3mb 41f 30f
5:04 1.3ft 3s 16 20 mph 1026mb 44f 30f
4:04 1.6ft 3s 16 18 mph 1026.2mb 43f 31f
3:04 1.6ft 3s 16 18 mph 1026.4mb 43f 30f
2:04 1.6ft 2s 16 18 mph 1026.3mb 43f 29f
1:04 1.3ft 2s 16 20 mph 1025.9mb 43f 29f
12:04 1ft 2s 11 16 mph 1026.1mb 43f 28f
Sa 12/20 11:04 1ft 2s 11 16 mph 1026.6mb 43f 28f
10:04 1ft 2s 13 16 mph 1026.8mb 42f 28f
9:04 0.7ft  -  16 18 mph 1026.8mb 41f 28f
8:04 0.7ft  -  7 9 mph 1026.7mb 41f 28f
7:04 1ft 2s 11 16 mph 1027mb 41f 28f
6:04 1ft 2s 13 18 mph 1026.7mb 41f 29f
5:04 1ft 3s 11 16 mph 1026.6mb 41f 28f
4:04 1.3ft 8s 11 13 mph 1026.2mb 41f 28f
3:04 1.3ft 3s 13 18 mph 1025.7mb 41f 28f
2:04 1.6ft 3s 18 22 mph 1025.2mb 42f 28f
1:04 1.3ft 3s 18 22 mph 1025.1mb 42f 27f
12:04 1.3ft 3s 16 20 mph 1025.7mb 42f 26f
11:04 1.3ft 3s 25 29 mph 1025.9mb 42f 26f
10:04 1.6ft 3s 16 20 mph 1026.1mb 44f 26f
9:04 1.6ft 3s 16 20 mph 1025.6mb 43f 27f
8:04 1.6ft 3s 18 25 mph 1024.7mb 44f 28f
7:04  -   -  18 22 mph 1023.8mb - 29f
6:04 2ft 3s 18 22 mph 1023.1mb 44f 29f
5:04 2ft 4s 18 22 mph 1022.4mb 44f 30f
4:04 2.5ft 3s 20 22 mph 1021.9mb 44f 31f
3:04 3ft 4s 20 25 mph 1021.3mb 44f 31f
2:04 3ft 4s 25 34 mph 1020.7mb 44f 31f
1:04 3.5ft 4s 29 34 mph 1019.6mb 44f 31f
12:04 2.5ft 3s 29 40 mph 1019.2mb 44f 32f
Fr 12/19 11:04  -   -  22 29 mph 1018.7mb - 32f
10:04 2ft 3s 20 25 mph 1018.3mb 44f 32f
9:04  -   -  16 22 mph 1017.4mb - 32f
8:04  -   -  18 20 mph 1016.7mb - 32f
7:04  -   -  16 20 mph 1016mb - 33f
6:04  -   -  16 18 mph 1014.9mb - 33f
5:04  -   -  18 20 mph 1014.1mb - 33f
4:04  -   -  16 20 mph 1013.5mb - 33f
3:04 1.6ft 3s 16 20 mph 1013mb 44f 33f
1:04 1.6ft 3s 16 20 mph 1011.7mb 44f 32f
12:04 2ft 3s 18 22 mph 1011.3mb 44f 32f
11:04 1.6ft 3s 20 25 mph 1011.5mb 44f 32f
10:04 2.5ft 3s 20 25 mph 1011.5mb 43f 32f
9:04 2ft 3s 29 36 mph 1010.9mb 43f 32f
8:04 1.6ft 2s 20 25 mph 1010.4mb 43f 32f
7:04 1.3ft 3s 20 25 mph 1009.9mb 42f 33f
6:04 1.3ft 3s 16 18 mph 1008.9mb 41f 32f
5:04 1ft 2s 13 16 mph 1008.3mb 41f 31f